createdAt,value
2018-06-02T00:02:00.723Z,99996
2018-06-02T00:04:27.629Z,99997
2018-06-02T00:06:53.808Z,99989
2018-06-02T00:09:19.975Z,99992
2018-06-02T00:11:46.482Z,99990
2018-06-02T00:14:13.384Z,99984
2018-06-02T00:16:39.580Z,99982
2018-06-02T00:19:06.470Z,99985
2018-06-02T00:21:32.660Z,99984
2018-06-02T00:23:59.573Z,99980
2018-06-02T00:26:25.773Z,99982
2018-06-02T00:28:51.961Z,99981
2018-06-02T00:31:18.138Z,99980
2018-06-02T00:33:44.284Z,99983
2018-06-02T00:36:10.449Z,99979
2018-06-02T00:38:36.643Z,99981
2018-06-02T00:41:02.806Z,99980
2018-06-02T00:43:28.981Z,99976
2018-06-02T00:45:55.178Z,99975
2018-06-02T00:48:21.328Z,99972
2018-06-02T00:50:47.500Z,99969
2018-06-02T00:53:13.789Z,99977
2018-06-02T00:55:40.042Z,99972
2018-06-02T00:58:07.009Z,99977
2018-06-02T01:00:33.928Z,99980
2018-06-02T01:03:00.095Z,99976
2018-06-02T01:05:26.273Z,99977
2018-06-02T01:07:52.431Z,99976
2018-06-02T01:10:18.619Z,99970
2018-06-02T01:12:44.789Z,99967
2018-06-02T01:15:11.938Z,99972
2018-06-02T01:17:38.114Z,99973
2018-06-02T01:20:04.344Z,99980
2018-06-02T01:22:31.245Z,99966
2018-06-02T01:24:57.405Z,99975
2018-06-02T01:27:23.581Z,99976
2018-06-02T01:29:49.772Z,99974
2018-06-02T01:32:15.950Z,99977
2018-06-02T01:34:42.157Z,99979
2018-06-02T01:37:09.073Z,99976
2018-06-02T01:39:35.223Z,99976
2018-06-02T01:42:02.124Z,99972
2018-06-02T01:44:28.328Z,99975
2018-06-02T01:46:55.256Z,99980
2018-06-02T01:49:22.185Z,99983
2018-06-02T01:51:48.333Z,99985
2018-06-02T01:54:14.579Z,99982
2018-06-02T01:56:40.725Z,99985
2018-06-02T01:59:07.633Z,99982
2018-06-02T02:01:33.808Z,99988
2018-06-02T02:04:00.696Z,99984
2018-06-02T02:06:26.849Z,99986
2018-06-02T02:08:52.998Z,99988
2018-06-02T02:11:19.161Z,99990
2018-06-02T02:13:46.096Z,99995
2018-06-02T02:16:12.273Z,99996
2018-06-02T02:18:38.440Z,100000
2018-06-02T02:21:04.582Z,99996
2018-06-02T02:23:30.761Z,99999
2018-06-02T02:25:56.916Z,100002
2018-06-02T02:28:23.081Z,100000
2018-06-02T02:30:49.331Z,100005
2018-06-02T02:33:15.472Z,100001
2018-06-02T02:35:42.372Z,100006
2018-06-02T02:38:08.553Z,100005
2018-06-02T02:40:35.474Z,100004
2018-06-02T02:43:01.750Z,100007
2018-06-02T02:45:28.640Z,100007
2018-06-02T02:47:54.791Z,100010
2018-06-02T02:50:21.053Z,100008
2018-06-02T02:52:47.943Z,100011
2018-06-02T02:55:14.353Z,100013
2018-06-02T02:57:40.533Z,100015
2018-06-02T03:00:06.709Z,100016
2018-06-02T03:02:40.539Z,100014
2018-06-02T03:05:07.017Z,100020
2018-06-02T03:07:33.207Z,100019
2018-06-02T03:10:00.136Z,100019
2018-06-02T03:12:26.341Z,100026
2018-06-02T03:14:52.513Z,100027
2018-06-02T03:17:19.409Z,100035
2018-06-02T03:19:45.548Z,100036
2018-06-02T03:22:11.739Z,100035
2018-06-02T03:24:37.929Z,100043
2018-06-02T03:27:04.096Z,100042
2018-06-02T03:29:30.984Z,100041
2018-06-02T03:31:57.144Z,100040
2018-06-02T03:34:23.301Z,100047
2018-06-02T03:36:49.578Z,100051
2018-06-02T03:39:15.750Z,100051
2018-06-02T03:41:41.933Z,100045
2018-06-02T03:44:08.063Z,100048
2018-06-02T03:46:34.225Z,100049
2018-06-02T03:49:00.405Z,100053
2018-06-02T03:51:26.740Z,100054
2018-06-02T03:53:53.659Z,100054
2018-06-02T03:56:21.337Z,100059
2018-06-02T03:58:47.516Z,100062
2018-06-02T04:01:13.725Z,100057
2018-06-02T04:03:39.892Z,100059
2018-06-02T04:06:06.033Z,100057
2018-06-02T04:08:32.213Z,100057
2018-06-02T04:10:59.876Z,100054
2018-06-02T04:13:26.049Z,100057
2018-06-02T04:15:52.262Z,100062
2018-06-02T04:18:19.212Z,100062
2018-06-02T04:20:46.141Z,100068
2018-06-02T04:23:13.480Z,100059
2018-06-02T04:25:39.662Z,100059
2018-06-02T04:28:06.541Z,100060
2018-06-02T04:30:32.727Z,100063
2018-06-02T04:32:58.953Z,100064
2018-06-02T04:35:25.130Z,100064
2018-06-02T04:37:51.297Z,100067
2018-06-02T04:40:17.587Z,100070
2018-06-02T04:42:43.721Z,100072
2018-06-02T04:45:11.141Z,100075
2018-06-02T04:47:37.320Z,100078
2018-06-02T04:50:04.264Z,100080
2018-06-02T04:52:31.188Z,100084
2018-06-02T04:54:57.380Z,100083
2018-06-02T04:57:23.544Z,100083
2018-06-02T04:59:49.700Z,100084
2018-06-02T05:02:16.651Z,100083
2018-06-02T05:04:43.627Z,100085
2018-06-02T05:07:09.805Z,100085
2018-06-02T05:09:36.006Z,100086
2018-06-02T05:12:02.171Z,100089
2018-06-02T05:14:28.312Z,100094
2018-06-02T05:16:54.509Z,100097
2018-06-02T05:19:20.665Z,100099
2018-06-02T05:21:46.839Z,100096
2018-06-02T05:24:13.049Z,100097
2018-06-02T05:26:39.193Z,100101
2018-06-02T05:29:05.486Z,100106
2018-06-02T05:31:32.317Z,100110
2018-06-02T05:33:58.501Z,100106
2018-06-02T05:36:24.699Z,100103
2018-06-02T05:38:50.948Z,100110
2018-06-02T05:41:17.114Z,100105
2018-06-02T05:43:43.285Z,100105
2018-06-02T05:46:09.537Z,100106
2018-06-02T05:48:35.725Z,100105
2018-06-02T05:51:02.667Z,100102
2018-06-02T05:53:28.845Z,100101
2018-06-02T05:55:55.029Z,100101
2018-06-02T05:58:21.953Z,100105
2018-06-02T06:00:48.097Z,100099
2018-06-02T06:03:14.712Z,100096
2018-06-02T06:05:40.889Z,100088
2018-06-02T06:08:07.045Z,100094
2018-06-02T06:10:36.018Z,100095
2018-06-02T06:13:02.205Z,100098
2018-06-02T06:15:28.437Z,100092
2018-06-02T06:17:54.667Z,100090
2018-06-02T06:20:20.880Z,100093
2018-06-02T06:22:47.806Z,100092
2018-06-02T06:25:14.013Z,100088
2018-06-02T06:27:40.191Z,100090
2018-06-02T06:30:07.158Z,100082
2018-06-02T06:32:33.349Z,100081
2018-06-02T06:35:00.021Z,100084
2018-06-02T06:37:26.969Z,100078
2018-06-02T06:39:53.916Z,100081
2018-06-02T06:42:20.838Z,100083
2018-06-02T06:44:47.074Z,100082
2018-06-02T06:47:13.218Z,100074
2018-06-02T06:49:39.591Z,100077
2018-06-02T06:52:05.774Z,100073
2018-06-02T06:54:31.976Z,100077
2018-06-02T06:56:58.146Z,100077
2018-06-02T06:59:24.402Z,100075
2018-06-02T07:01:51.330Z,100075
2018-06-02T07:04:17.522Z,100073
2018-06-02T07:06:43.959Z,100073
2018-06-02T07:09:10.708Z,100073
2018-06-02T07:11:36.876Z,100076
2018-06-02T07:14:03.049Z,100078
2018-06-02T07:16:29.234Z,100074
2018-06-02T07:18:55.430Z,100076
2018-06-02T07:21:21.641Z,100078
2018-06-02T07:23:47.821Z,100077
2018-06-02T07:26:13.976Z,100082
2018-06-02T07:28:40.658Z,100085
2018-06-02T07:31:07.569Z,100074
2018-06-02T07:33:33.782Z,100078
2018-06-02T07:36:03.265Z,100080
2018-06-02T07:38:31.190Z,100083
2018-06-02T07:40:58.148Z,100083
2018-06-02T07:43:24.301Z,100078
2018-06-02T07:45:50.464Z,100084
2018-06-02T07:48:16.667Z,100077
2018-06-02T07:50:43.644Z,100081
2018-06-02T07:53:09.858Z,100083
2018-06-02T07:55:36.772Z,100085
2018-06-02T07:58:04.241Z,100086
2018-06-02T08:00:30.957Z,100087
2018-06-02T08:02:57.330Z,100088
2018-06-02T08:05:23.525Z,100081
2018-06-02T08:07:49.705Z,100090
2018-06-02T08:10:15.987Z,100079
2018-06-02T08:12:42.953Z,100089
2018-06-02T08:15:09.096Z,100086
2018-06-02T08:17:35.309Z,100081
2018-06-02T08:20:01.486Z,100087
2018-06-02T08:22:27.661Z,100096
2018-06-02T08:24:54.593Z,100095
2018-06-02T08:27:21.476Z,100098
2018-06-02T08:29:47.620Z,100103
2018-06-02T08:32:13.812Z,100101
2018-06-02T08:34:39.989Z,100107
2018-06-02T08:37:06.201Z,100104
2018-06-02T08:39:33.121Z,100110
2018-06-02T08:41:59.269Z,100113
2018-06-02T08:44:26.153Z,100105
2018-06-02T08:46:52.752Z,100112
2018-06-02T08:49:20.105Z,100109
2018-06-02T08:51:46.953Z,100107
2018-06-02T08:54:13.113Z,100114
2018-06-02T08:56:46.353Z,100117
2018-06-02T08:59:13.301Z,100115
2018-06-02T09:01:39.452Z,100113
2018-06-02T09:04:05.649Z,100108
2018-06-02T09:06:31.856Z,100113
2018-06-02T09:08:58.010Z,100111
2018-06-02T09:11:24.209Z,100118
2018-06-02T09:13:51.094Z,100112
2018-06-02T09:16:17.245Z,100113
2018-06-02T09:18:43.425Z,100105
2018-06-02T09:21:16.451Z,100110
2018-06-02T09:23:42.624Z,100113
2018-06-02T09:26:15.786Z,100116
2018-06-02T09:28:41.993Z,100106
2018-06-02T09:31:08.185Z,100105
2018-06-02T09:33:34.453Z,100113
2018-06-02T09:36:01.388Z,100114
2018-06-02T09:38:27.550Z,100113
2018-06-02T09:40:53.721Z,100113
2018-06-02T09:43:19.985Z,100115
2018-06-02T09:45:46.129Z,100114
2018-06-02T09:48:12.359Z,100108
2018-06-02T09:50:39.285Z,100108
2018-06-02T09:53:05.464Z,100107
2018-06-02T09:55:31.660Z,100114
2018-06-02T09:57:57.816Z,100106
2018-06-02T10:00:24.726Z,100103
2018-06-02T10:02:50.948Z,100105
2018-06-02T10:05:17.114Z,100108
2018-06-02T10:07:43.355Z,100114
2018-06-02T10:10:10.285Z,100106
2018-06-02T10:12:36.464Z,100108
2018-06-02T10:15:02.625Z,100114
2018-06-02T10:17:28.818Z,100115
2018-06-02T10:19:54.971Z,100115
2018-06-02T10:22:22.001Z,100112
2018-06-02T10:24:48.207Z,100109
2018-06-02T10:27:14.373Z,100112
2018-06-02T10:29:40.538Z,100110
2018-06-02T10:32:07.097Z,100120
2018-06-02T10:34:33.281Z,100116
2018-06-02T10:37:00.169Z,100120
2018-06-02T10:39:29.144Z,100108
2018-06-02T10:41:56.860Z,100109
2018-06-02T10:44:23.025Z,100116
2018-06-02T10:46:49.933Z,100113
2018-06-02T10:49:16.105Z,100120
2018-06-02T10:51:43.094Z,100109
2018-06-02T10:54:09.302Z,100112
2018-06-02T10:56:36.263Z,100110
2018-06-02T10:59:03.141Z,100108
2018-06-02T11:01:29.351Z,100113
2018-06-02T11:03:55.509Z,100107
2018-06-02T11:06:21.690Z,100113
2018-06-02T11:08:47.869Z,100098
2018-06-02T11:11:14.169Z,100117
2018-06-02T11:13:40.369Z,100120
2018-06-02T11:16:06.517Z,100123
2018-06-02T11:18:32.689Z,100127
2018-06-02T11:20:58.842Z,100128
2018-06-02T11:23:25.037Z,100129
2018-06-02T11:25:51.996Z,100129
2018-06-02T11:28:18.167Z,100129
2018-06-02T11:30:45.309Z,100129
2018-06-02T11:33:11.452Z,100123
2018-06-02T11:35:37.613Z,100121
2018-06-02T11:38:03.787Z,100126
2018-06-02T11:40:30.417Z,100111
2018-06-02T11:42:57.333Z,100113
2018-06-02T11:45:23.497Z,100109
2018-06-02T11:47:50.422Z,100118
2018-06-02T11:50:16.607Z,100111
2018-06-02T11:52:42.806Z,100108
2018-06-02T11:55:09.053Z,100105
2018-06-02T11:57:35.257Z,100103
2018-06-02T12:00:01.442Z,100113
2018-06-02T12:02:27.639Z,100113
2018-06-02T12:04:53.797Z,100112
2018-06-02T12:07:19.971Z,100099
2018-06-02T12:09:46.157Z,100100
2018-06-02T12:12:13.273Z,100106
2018-06-02T12:14:39.441Z,100109
2018-06-02T12:17:06.356Z,100100
2018-06-02T12:19:32.496Z,100101
2018-06-02T12:21:58.766Z,100101
2018-06-02T12:24:24.997Z,100094
2018-06-02T12:26:51.946Z,100096
2018-06-02T12:29:18.854Z,100095
2018-06-02T12:31:45.058Z,100093
2018-06-02T12:34:11.240Z,100095
2018-06-02T12:36:37.406Z,100102
2018-06-02T12:39:04.357Z,100097
2018-06-02T12:41:30.581Z,100090
2018-06-02T12:43:57.525Z,100087
2018-06-02T12:46:23.778Z,100092
2018-06-02T12:48:49.996Z,100095
2018-06-02T12:51:16.910Z,100083
2018-06-02T12:53:43.099Z,100080
2018-06-02T12:56:09.285Z,100084
2018-06-02T12:58:35.454Z,100084
2018-06-02T13:01:02.370Z,100084
2018-06-02T13:03:28.595Z,100085
2018-06-02T13:05:54.786Z,100080
2018-06-02T13:08:20.947Z,100075
2018-06-02T13:10:47.109Z,100069
2018-06-02T13:13:13.482Z,100078
2018-06-02T13:15:40.388Z,100079
2018-06-02T13:18:06.566Z,100073
2018-06-02T13:20:32.753Z,100076
2018-06-02T13:22:58.949Z,100075
2018-06-02T13:25:25.133Z,100065
2018-06-02T13:27:51.320Z,100062
2018-06-02T13:30:17.527Z,100061
2018-06-02T13:32:43.745Z,100057
2018-06-02T13:35:09.988Z,100065
2018-06-02T13:37:36.911Z,100058
2018-06-02T13:40:03.081Z,100057
2018-06-02T13:42:29.289Z,100054
2018-06-02T13:44:56.919Z,100052
2018-06-02T13:47:23.079Z,100058
2018-06-02T13:49:49.966Z,100053
2018-06-02T13:52:16.889Z,100050
2018-06-02T13:54:43.067Z,100048
2018-06-02T13:57:09.266Z,100046
2018-06-02T13:59:35.422Z,100059
2018-06-02T14:02:02.345Z,100060
2018-06-02T14:04:28.514Z,100052
2018-06-02T14:06:54.697Z,100057
2018-06-02T14:09:22.345Z,100059
2018-06-02T14:11:48.575Z,100049
2018-06-02T14:14:14.950Z,100055
2018-06-02T14:16:41.859Z,100056
2018-06-02T14:19:07.996Z,100050
2018-06-02T14:21:34.157Z,100051
2018-06-02T14:24:00.333Z,100050
2018-06-02T14:26:26.512Z,100044
2018-06-02T14:28:53.477Z,100039
2018-06-02T14:31:20.387Z,100044
2018-06-02T14:33:46.581Z,100039
2018-06-02T14:36:13.477Z,100037
2018-06-02T14:38:39.681Z,100034
2018-06-02T14:41:05.829Z,100034
2018-06-02T14:43:32.037Z,100037
2018-06-02T14:45:59.209Z,100038
2018-06-02T14:48:25.425Z,100034
2018-06-02T14:50:52.325Z,100029
2018-06-02T14:53:18.517Z,100032
2018-06-02T14:55:45.443Z,100030
2018-06-02T14:58:12.714Z,100032
2018-06-02T15:00:39.668Z,100034
2018-06-02T15:03:05.837Z,100032
2018-06-02T15:05:32.902Z,100030
2018-06-02T15:07:59.099Z,100029
2018-06-02T15:10:25.248Z,100035
2018-06-02T15:12:51.402Z,100032
2018-06-02T15:15:17.560Z,100031
2018-06-02T15:17:43.752Z,100037
2018-06-02T15:20:09.905Z,100042
2018-06-02T15:22:36.090Z,100044
2018-06-02T15:25:02.333Z,100036
2018-06-02T15:27:28.425Z,100045
2018-06-02T15:29:54.605Z,100042
2018-06-02T15:32:20.793Z,100042
2018-06-02T15:34:48.439Z,100039
2018-06-02T15:37:14.633Z,100041
2018-06-02T15:39:40.789Z,100041
2018-06-02T15:42:06.980Z,100048
2018-06-02T15:44:33.909Z,100044
2018-06-02T15:47:00.195Z,100042
2018-06-02T15:49:26.360Z,100044
2018-06-02T15:51:52.550Z,100037
2018-06-02T15:54:19.426Z,100030
2018-06-02T15:56:45.635Z,100025
2018-06-02T15:59:11.877Z,100027
2018-06-02T16:01:38.058Z,100032
2018-06-02T16:04:04.222Z,100033
2018-06-02T16:06:31.163Z,100033
2018-06-02T16:08:57.364Z,100029
2018-06-02T16:11:23.533Z,100036
2018-06-02T16:13:50.669Z,100027
2018-06-02T16:16:23.881Z,100028
2018-06-02T16:18:51.401Z,100036
2018-06-02T16:21:17.588Z,100027
2018-06-02T16:23:43.773Z,100037
2018-06-02T16:26:09.985Z,100041
2018-06-02T16:28:36.133Z,100033
2018-06-02T16:31:02.261Z,100030
2018-06-02T16:33:28.437Z,100032
2018-06-02T16:35:54.613Z,100031
2018-06-02T16:38:20.765Z,100039
2018-06-02T16:40:46.960Z,100037
2018-06-02T16:43:13.108Z,100043
2018-06-02T16:45:39.297Z,100042
2018-06-02T16:48:05.457Z,100042
2018-06-02T16:50:31.596Z,100043
2018-06-02T16:52:57.784Z,100044
2018-06-02T16:55:23.945Z,100040
2018-06-02T16:57:50.894Z,100047
2018-06-02T17:00:17.841Z,100043
2018-06-02T17:02:43.982Z,100053
2018-06-02T17:05:10.194Z,100050
2018-06-02T17:07:36.335Z,100053
2018-06-02T17:10:03.525Z,100053
2018-06-02T17:12:29.695Z,100051
2018-06-02T17:14:55.865Z,100051
2018-06-02T17:17:22.033Z,100051
2018-06-02T17:19:49.238Z,100054
2018-06-02T17:22:15.404Z,100060
2018-06-02T17:24:41.825Z,100062
2018-06-02T17:27:08.030Z,100061
2018-06-02T17:29:34.166Z,100064
2018-06-02T17:32:00.350Z,100069
2018-06-02T17:34:26.508Z,100072
2018-06-02T17:36:52.660Z,100076
2018-06-02T17:39:18.838Z,100082
2018-06-02T17:41:44.970Z,100075
2018-06-02T17:44:11.173Z,100075
2018-06-02T17:46:37.333Z,100073
2018-06-02T17:49:03.506Z,100074
2018-06-02T17:51:30.514Z,100073
2018-06-02T17:53:56.582Z,100071
2018-06-02T17:56:23.554Z,100076
2018-06-02T17:58:49.738Z,100074
2018-06-02T18:01:15.932Z,100076
2018-06-02T18:03:42.375Z,100075
2018-06-02T18:06:08.627Z,100083
2018-06-02T18:08:34.918Z,100088
2018-06-02T18:11:01.216Z,100086
2018-06-02T18:13:27.335Z,100081
2018-06-02T18:18:53.019Z,100086.00
2018-06-02T18:21:21.017Z,100084.00
2018-06-02T18:23:49.174Z,100083.00
2018-06-02T18:26:16.754Z,100081.00
2018-06-02T18:28:44.505Z,100079.00
2018-06-02T18:31:12.077Z,100090.00
2018-06-02T18:33:39.693Z,100093.00
2018-06-02T18:36:07.250Z,100096.00
2018-06-02T18:38:35.777Z,100092.00
2018-06-02T18:41:03.412Z,100091.00
2018-06-02T18:43:30.983Z,100092.00
2018-06-02T18:45:58.634Z,100098.00
2018-06-02T18:48:26.385Z,100096.00
2018-06-02T18:50:54.037Z,100098.00
2018-06-02T18:53:21.745Z,100093.00
2018-06-02T18:55:49.441Z,100096.00
2018-06-02T18:58:17.069Z,100098.00
2018-06-02T19:00:44.852Z,100097.00
2018-06-02T19:03:12.503Z,100103.00
2018-06-02T19:05:40.198Z,100103.00
2018-06-02T19:08:07.811Z,100102.00
2018-06-02T19:10:35.490Z,100106.00
2018-06-02T19:13:03.116Z,100108.00
2018-06-02T19:15:30.673Z,100109.00
2018-06-02T19:17:58.307Z,100111.00
2018-06-02T19:20:26.675Z,100106.00
2018-06-02T19:22:54.324Z,100108.00
2018-06-02T19:25:21.976Z,100109.00
2018-06-02T19:27:49.850Z,100114.00
2018-06-02T19:30:17.444Z,100114.00
2018-06-02T19:32:44.990Z,100121.00
2018-06-02T19:35:12.607Z,100127.00
2018-06-02T19:37:40.210Z,100129.00
2018-06-02T19:40:07.763Z,100133.00
2018-06-02T19:45:09.553Z,100133.00
2018-06-02T19:47:37.213Z,100125.00
2018-06-02T19:50:04.908Z,100129.00
2018-06-02T19:52:33.122Z,100123.00
2018-06-02T19:55:01.137Z,100126.00
2018-06-02T19:57:29.235Z,100120.00
2018-06-02T20:00:00.269Z,100124.00
2018-06-02T20:02:27.887Z,100131.00
2018-06-02T20:04:55.933Z,100125.00
2018-06-02T20:07:23.632Z,100128.00
2018-06-02T20:09:51.733Z,100125.00
2018-06-02T20:12:19.427Z,100120.00
2018-06-02T20:14:47.121Z,100121.00
2018-06-02T20:17:14.822Z,100116.00
2018-06-02T20:19:42.559Z,100110.00
2018-06-02T20:22:11.618Z,100113.00
2018-06-02T20:24:39.373Z,100115.00
2018-06-02T20:27:07.136Z,100118.00
2018-06-02T20:29:35.393Z,100124.00
2018-06-02T20:32:03.138Z,100125.00
2018-06-02T20:34:30.911Z,100124.00
2018-06-02T20:36:59.335Z,100124.00
2018-06-02T20:39:27.018Z,100123.00
2018-06-02T20:41:54.844Z,100126.00
2018-06-02T20:44:24.379Z,100130.00
2018-06-02T20:46:54.921Z,100134.00
2018-06-02T20:49:24.979Z,100126.00
2018-06-02T20:51:52.952Z,100129.00
2018-06-02T20:54:20.793Z,100128.00
2018-06-02T20:56:48.703Z,100123.00
2018-06-02T20:59:16.415Z,100127.00
2018-06-02T21:01:45.105Z,100126.00
2018-06-02T21:04:12.835Z,100129.00
2018-06-02T21:06:41.666Z,100130.00
2018-06-02T21:09:10.221Z,100132.00
2018-06-02T21:11:37.929Z,100133.00
2018-06-02T21:14:05.645Z,100138.00
2018-06-02T21:16:33.337Z,100141.00
2018-06-02T21:19:00.966Z,100140.00
2018-06-02T21:21:28.655Z,100141.00
2018-06-02T21:23:56.347Z,100144.00
2018-06-02T21:26:23.953Z,100145.00
2018-06-02T21:28:51.738Z,100145.00
2018-06-02T21:31:19.432Z,100144.00
2018-06-02T21:33:47.161Z,100143.00
2018-06-02T21:36:15.530Z,100145.00
2018-06-02T21:38:43.159Z,100145.00
2018-06-02T21:41:10.935Z,100147.00
2018-06-02T21:43:38.627Z,100152.00
2018-06-02T21:46:06.361Z,100153.00
2018-06-02T21:48:34.006Z,100154.00
2018-06-02T21:51:01.666Z,100152.00
2018-06-02T21:53:29.321Z,100159.00
2018-06-02T21:55:56.952Z,100159.00
2018-06-02T21:58:24.636Z,100161.00
2018-06-02T22:00:52.257Z,100168.00
2018-06-02T22:03:19.914Z,100167.00
2018-06-02T22:05:47.677Z,100165.00
2018-06-02T22:08:15.364Z,100163.00
2018-06-02T22:10:42.981Z,100160.00
2018-06-02T22:13:10.672Z,100157.00
2018-06-02T22:15:38.368Z,100156.00
2018-06-02T22:18:06.085Z,100153.00
2018-06-02T22:20:34.445Z,100148.00
2018-06-02T22:23:02.187Z,100146.00
2018-06-02T22:25:29.775Z,100146.00
2018-06-02T22:27:57.462Z,100152.00
2018-06-02T22:30:25.277Z,100152.00
2018-06-02T22:32:52.938Z,100155.00
2018-06-02T22:35:20.577Z,100157.00
2018-06-02T22:37:48.875Z,100165.00
2018-06-02T22:40:16.521Z,100169.00
2018-06-02T22:42:44.166Z,100169.00
2018-06-02T22:45:11.876Z,100169.00
2018-06-02T22:47:39.545Z,100167.00
2018-06-02T22:50:07.252Z,100161.00
2018-06-02T22:52:35.749Z,100167.00
2018-06-02T22:55:03.346Z,100172.00
2018-06-02T22:57:31.026Z,100169.00
2018-06-02T22:59:58.752Z,100172.00
2018-06-02T23:02:26.409Z,100175.00
2018-06-02T23:04:55.202Z,100180.00
2018-06-02T23:07:22.953Z,100184.00
2018-06-02T23:09:50.507Z,100185.00
2018-06-02T23:12:18.102Z,100192.00
2018-06-02T23:14:45.714Z,100195.00
2018-06-02T23:17:13.300Z,100196.00
2018-06-02T23:19:40.883Z,100201.00
2018-06-02T23:22:24.849Z,100199.00
2018-06-02T23:24:52.394Z,100202.00
2018-06-02T23:27:20.027Z,100196.00
2018-06-02T23:29:47.626Z,100196.00
2018-06-02T23:32:15.184Z,100195.00
2018-06-02T23:34:42.767Z,100196.00
2018-06-02T23:37:10.349Z,100202.00
2018-06-02T23:39:37.953Z,100203.00
2018-06-02T23:42:05.568Z,100198.00
2018-06-02T23:44:33.169Z,100200.00
2018-06-02T23:47:00.741Z,100202.00
2018-06-02T23:49:28.339Z,100199.00
2018-06-02T23:51:55.932Z,100205.00
2018-06-02T23:54:24.175Z,100195.00
2018-06-02T23:56:51.761Z,100201.00
2018-06-02T23:59:19.332Z,100207.00
